sensor_id;sensor_type;location;lat;lon;timestamp;P1;durP1;ratioP1;P2;durP2;ratioP2
60233;SDS011;49514;43.538;-5.708;2023-02-03T00:01:53;54.67;;;20.23;;
60233;SDS011;49514;43.538;-5.708;2023-02-03T00:04:20;50.42;;;18.90;;
60233;SDS011;49514;43.538;-5.708;2023-02-03T00:06:47;57.78;;;18.80;;
60233;SDS011;49514;43.538;-5.708;2023-02-03T00:09:14;49.88;;;17.98;;
60233;SDS011;49514;43.538;-5.708;2023-02-03T00:11:41;44.42;;;17.23;;
60233;SDS011;49514;43.538;-5.708;2023-02-03T00:14:07;45.00;;;16.48;;
60233;SDS011;49514;43.538;-5.708;2023-02-03T00:16:34;51.38;;;15.73;;
60233;SDS011;49514;43.538;-5.708;2023-02-03T00:19:01;46.00;;;16.38;;
60233;SDS011;49514;43.538;-5.708;2023-02-03T00:21:28;49.60;;;15.55;;
60233;SDS011;49514;43.538;-5.708;2023-02-03T00:27:12;39.28;;;12.68;;
60233;SDS011;49514;43.538;-5.708;2023-02-03T00:29:39;36.90;;;12.50;;
60233;SDS011;49514;43.538;-5.708;2023-02-03T00:32:05;36.30;;;12.07;;
60233;SDS011;49514;43.538;-5.708;2023-02-03T00:34:32;35.25;;;10.27;;
60233;SDS011;49514;43.538;-5.708;2023-02-03T00:36:59;23.90;;;9.73;;
60233;SDS011;49514;43.538;-5.708;2023-02-03T00:39:26;29.75;;;10.95;;
60233;SDS011;49514;43.538;-5.708;2023-02-03T00:41:53;28.90;;;9.82;;
60233;SDS011;49514;43.538;-5.708;2023-02-03T00:44:20;34.63;;;10.40;;
60233;SDS011;49514;43.538;-5.708;2023-02-03T00:46:47;26.08;;;10.55;;
60233;SDS011;49514;43.538;-5.708;2023-02-03T00:49:13;32.30;;;10.77;;
60233;SDS011;49514;43.538;-5.708;2023-02-03T00:51:40;32.40;;;11.77;;
60233;SDS011;49514;43.538;-5.708;2023-02-03T00:54:07;38.03;;;12.50;;
60233;SDS011;49514;43.538;-5.708;2023-02-03T00:56:34;68.97;;;14.60;;
60233;SDS011;49514;43.538;-5.708;2023-02-03T00:59:00;62.25;;;13.98;;
60233;SDS011;49514;43.538;-5.708;2023-02-03T01:01:27;60.58;;;15.52;;
60233;SDS011;49514;43.538;-5.708;2023-02-03T01:03:54;52.40;;;14.40;;
60233;SDS011;49514;43.538;-5.708;2023-02-03T01:06:22;69.00;;;14.40;;
60233;SDS011;49514;43.538;-5.708;2023-02-03T01:08:49;58.65;;;12.57;;
60233;SDS011;49514;43.538;-5.708;2023-02-03T01:11:17;51.25;;;11.75;;
60233;SDS011;49514;43.538;-5.708;2023-02-03T01:13:47;29.42;;;11.50;;
60233;SDS011;49514;43.538;-5.708;2023-02-03T01:16:16;27.30;;;10.15;;
60233;SDS011;49514;43.538;-5.708;2023-02-03T01:18:44;22.13;;;9.85;;
60233;SDS011;49514;43.538;-5.708;2023-02-03T01:21:16;29.60;;;10.73;;
60233;SDS011;49514;43.538;-5.708;2023-02-03T01:23:45;21.35;;;9.65;;
60233;SDS011;49514;43.538;-5.708;2023-02-03T01:26:13;26.00;;;10.25;;
60233;SDS011;49514;43.538;-5.708;2023-02-03T01:28:41;28.77;;;12.68;;
60233;SDS011;49514;43.538;-5.708;2023-02-03T01:31:09;29.02;;;10.93;;
60233;SDS011;49514;43.538;-5.708;2023-02-03T01:33:40;25.20;;;10.80;;
60233;SDS011;49514;43.538;-5.708;2023-02-03T01:36:07;27.55;;;10.90;;
60233;SDS011;49514;43.538;-5.708;2023-02-03T01:38:35;27.58;;;9.93;;
60233;SDS011;49514;43.538;-5.708;2023-02-03T01:41:02;21.65;;;10.13;;
60233;SDS011;49514;43.538;-5.708;2023-02-03T01:43:32;20.73;;;8.80;;
60233;SDS011;49514;43.538;-5.708;2023-02-03T01:46:45;19.48;;;9.60;;
60233;SDS011;49514;43.538;-5.708;2023-02-03T01:51:44;16.80;;;8.88;;
60233;SDS011;49514;43.538;-5.708;2023-02-03T01:54:14;21.17;;;9.40;;
60233;SDS011;49514;43.538;-5.708;2023-02-03T01:56:46;25.70;;;9.75;;
60233;SDS011;49514;43.538;-5.708;2023-02-03T01:59:17;28.92;;;11.20;;
60233;SDS011;49514;43.538;-5.708;2023-02-03T02:01:46;18.70;;;10.13;;
60233;SDS011;49514;43.538;-5.708;2023-02-03T02:04:13;32.15;;;12.98;;
60233;SDS011;49514;43.538;-5.708;2023-02-03T02:06:41;27.20;;;11.98;;
60233;SDS011;49514;43.538;-5.708;2023-02-03T02:09:11;32.17;;;14.40;;
60233;SDS011;49514;43.538;-5.708;2023-02-03T02:11:41;43.90;;;18.15;;
60233;SDS011;49514;43.538;-5.708;2023-02-03T02:14:08;47.15;;;18.15;;
60233;SDS011;49514;43.538;-5.708;2023-02-03T02:33:54;39.70;;;17.13;;
60233;SDS011;49514;43.538;-5.708;2023-02-03T02:36:31;28.88;;;12.93;;
60233;SDS011;49514;43.538;-5.708;2023-02-03T02:39:39;36.15;;;14.18;;
60233;SDS011;49514;43.538;-5.708;2023-02-03T02:42:23;40.42;;;16.50;;
60233;SDS011;49514;43.538;-5.708;2023-02-03T02:45:08;46.75;;;18.08;;
60233;SDS011;49514;43.538;-5.708;2023-02-03T02:47:39;39.30;;;17.63;;
60233;SDS011;49514;43.538;-5.708;2023-02-03T02:52:37;42.45;;;17.85;;
60233;SDS011;49514;43.538;-5.708;2023-02-03T02:55:16;48.95;;;18.20;;
60233;SDS011;49514;43.538;-5.708;2023-02-03T02:57:57;55.20;;;18.23;;
60233;SDS011;49514;43.538;-5.708;2023-02-03T03:00:29;50.47;;;18.65;;
60233;SDS011;49514;43.538;-5.708;2023-02-03T03:03:11;56.75;;;19.15;;
60233;SDS011;49514;43.538;-5.708;2023-02-03T03:05:42;44.33;;;17.50;;
60233;SDS011;49514;43.538;-5.708;2023-02-03T03:08:22;32.42;;;13.48;;
60233;SDS011;49514;43.538;-5.708;2023-02-03T03:10:57;42.63;;;17.42;;
60233;SDS011;49514;43.538;-5.708;2023-02-03T03:13:29;54.90;;;20.10;;
60233;SDS011;49514;43.538;-5.708;2023-02-03T03:15:59;43.10;;;17.48;;
60233;SDS011;49514;43.538;-5.708;2023-02-03T03:18:36;40.83;;;15.30;;
60233;SDS011;49514;43.538;-5.708;2023-02-03T03:21:08;25.70;;;11.98;;
60233;SDS011;49514;43.538;-5.708;2023-02-03T03:23:40;24.42;;;10.77;;
60233;SDS011;49514;43.538;-5.708;2023-02-03T03:26:11;24.02;;;11.20;;
60233;SDS011;49514;43.538;-5.708;2023-02-03T03:28:57;31.35;;;11.07;;
60233;SDS011;49514;43.538;-5.708;2023-02-03T03:31:33;22.77;;;9.85;;
60233;SDS011;49514;43.538;-5.708;2023-02-03T03:33:59;17.65;;;9.20;;
60233;SDS011;49514;43.538;-5.708;2023-02-03T03:36:28;24.92;;;10.55;;
60233;SDS011;49514;43.538;-5.708;2023-02-03T03:44:46;33.88;;;13.48;;
60233;SDS011;49514;43.538;-5.708;2023-02-03T03:47:38;30.80;;;12.15;;
60233;SDS011;49514;43.538;-5.708;2023-02-03T03:50:20;27.75;;;11.48;;
60233;SDS011;49514;43.538;-5.708;2023-02-03T03:52:48;32.70;;;12.80;;
60233;SDS011;49514;43.538;-5.708;2023-02-03T03:55:17;42.83;;;14.73;;
60233;SDS011;49514;43.538;-5.708;2023-02-03T03:57:55;53.42;;;20.52;;
60233;SDS011;49514;43.538;-5.708;2023-02-03T04:00:27;51.17;;;19.80;;
60233;SDS011;49514;43.538;-5.708;2023-02-03T04:02:58;50.30;;;20.02;;
60233;SDS011;49514;43.538;-5.708;2023-02-03T04:05:30;65.55;;;27.27;;
60233;SDS011;49514;43.538;-5.708;2023-02-03T04:07:58;62.60;;;27.17;;
60233;SDS011;49514;43.538;-5.708;2023-02-03T04:10:28;73.88;;;29.10;;
60233;SDS011;49514;43.538;-5.708;2023-02-03T04:12:57;63.17;;;25.70;;
60233;SDS011;49514;43.538;-5.708;2023-02-03T04:15:24;64.75;;;24.80;;
60233;SDS011;49514;43.538;-5.708;2023-02-03T04:17:51;48.53;;;20.65;;
60233;SDS011;49514;43.538;-5.708;2023-02-03T04:20:19;53.58;;;23.27;;
60233;SDS011;49514;43.538;-5.708;2023-02-03T04:22:46;55.25;;;21.52;;
60233;SDS011;49514;43.538;-5.708;2023-02-03T04:25:12;52.08;;;23.40;;
60233;SDS011;49514;43.538;-5.708;2023-02-03T04:27:39;55.28;;;25.73;;
60233;SDS011;49514;43.538;-5.708;2023-02-03T04:30:06;53.13;;;23.52;;
60233;SDS011;49514;43.538;-5.708;2023-02-03T04:32:34;49.00;;;21.30;;
60233;SDS011;49514;43.538;-5.708;2023-02-03T04:35:01;48.97;;;20.77;;
60233;SDS011;49514;43.538;-5.708;2023-02-03T04:37:29;55.57;;;21.97;;
60233;SDS011;49514;43.538;-5.708;2023-02-03T04:39:56;53.40;;;22.60;;
60233;SDS011;49514;43.538;-5.708;2023-02-03T04:42:23;45.60;;;20.52;;
60233;SDS011;49514;43.538;-5.708;2023-02-03T04:44:50;55.27;;;21.40;;
60233;SDS011;49514;43.538;-5.708;2023-02-03T04:47:17;47.00;;;20.30;;
60233;SDS011;49514;43.538;-5.708;2023-02-03T04:49:45;49.17;;;22.67;;
60233;SDS011;49514;43.538;-5.708;2023-02-03T04:52:12;48.22;;;23.48;;
60233;SDS011;49514;43.538;-5.708;2023-02-03T04:54:39;42.33;;;19.58;;
60233;SDS011;49514;43.538;-5.708;2023-02-03T04:57:05;43.70;;;20.15;;
60233;SDS011;49514;43.538;-5.708;2023-02-03T04:59:32;44.85;;;20.85;;
60233;SDS011;49514;43.538;-5.708;2023-02-03T05:02:02;41.77;;;20.77;;
60233;SDS011;49514;43.538;-5.708;2023-02-03T05:04:29;41.60;;;20.23;;
60233;SDS011;49514;43.538;-5.708;2023-02-03T05:06:56;47.50;;;19.50;;
60233;SDS011;49514;43.538;-5.708;2023-02-03T05:09:24;47.58;;;21.65;;
60233;SDS011;49514;43.538;-5.708;2023-02-03T05:11:51;46.20;;;20.23;;
60233;SDS011;49514;43.538;-5.708;2023-02-03T05:14:18;38.10;;;19.25;;
60233;SDS011;49514;43.538;-5.708;2023-02-03T05:16:45;43.25;;;19.42;;
60233;SDS011;49514;43.538;-5.708;2023-02-03T05:19:12;37.13;;;20.87;;
60233;SDS011;49514;43.538;-5.708;2023-02-03T05:21:38;38.50;;;20.87;;
60233;SDS011;49514;43.538;-5.708;2023-02-03T05:24:05;41.43;;;20.57;;
60233;SDS011;49514;43.538;-5.708;2023-02-03T05:26:33;39.60;;;18.00;;
60233;SDS011;49514;43.538;-5.708;2023-02-03T05:29:00;38.03;;;17.10;;
60233;SDS011;49514;43.538;-5.708;2023-02-03T05:31:27;28.73;;;14.18;;
60233;SDS011;49514;43.538;-5.708;2023-02-03T05:33:53;30.52;;;13.80;;
60233;SDS011;49514;43.538;-5.708;2023-02-03T05:36:20;36.30;;;18.10;;
60233;SDS011;49514;43.538;-5.708;2023-02-03T05:38:46;35.22;;;15.73;;
60233;SDS011;49514;43.538;-5.708;2023-02-03T05:41:13;38.22;;;16.70;;
60233;SDS011;49514;43.538;-5.708;2023-02-03T05:43:58;38.23;;;15.50;;
60233;SDS011;49514;43.538;-5.708;2023-02-03T05:46:25;36.60;;;15.93;;
60233;SDS011;49514;43.538;-5.708;2023-02-03T05:48:52;47.20;;;19.95;;
60233;SDS011;49514;43.538;-5.708;2023-02-03T05:51:18;44.70;;;19.17;;
60233;SDS011;49514;43.538;-5.708;2023-02-03T05:53:45;39.50;;;16.95;;
60233;SDS011;49514;43.538;-5.708;2023-02-03T05:56:12;34.03;;;16.30;;
60233;SDS011;49514;43.538;-5.708;2023-02-03T05:58:39;32.83;;;15.25;;
60233;SDS011;49514;43.538;-5.708;2023-02-03T06:01:05;24.98;;;11.13;;
60233;SDS011;49514;43.538;-5.708;2023-02-03T06:03:32;34.53;;;11.63;;
60233;SDS011;49514;43.538;-5.708;2023-02-03T06:05:59;21.17;;;9.90;;
60233;SDS011;49514;43.538;-5.708;2023-02-03T06:08:25;18.65;;;10.27;;
60233;SDS011;49514;43.538;-5.708;2023-02-03T06:10:57;21.95;;;10.55;;
60233;SDS011;49514;43.538;-5.708;2023-02-03T06:13:25;21.75;;;11.18;;
60233;SDS011;49514;43.538;-5.708;2023-02-03T06:15:52;22.70;;;11.40;;
60233;SDS011;49514;43.538;-5.708;2023-02-03T06:18:19;26.98;;;12.82;;
60233;SDS011;49514;43.538;-5.708;2023-02-03T06:20:46;26.50;;;12.30;;
60233;SDS011;49514;43.538;-5.708;2023-02-03T06:23:12;27.35;;;12.75;;
60233;SDS011;49514;43.538;-5.708;2023-02-03T06:25:42;28.70;;;13.93;;
60233;SDS011;49514;43.538;-5.708;2023-02-03T06:28:08;26.52;;;11.80;;
60233;SDS011;49514;43.538;-5.708;2023-02-03T06:30:35;29.30;;;12.02;;
60233;SDS011;49514;43.538;-5.708;2023-02-03T06:33:02;28.87;;;11.87;;
60233;SDS011;49514;43.538;-5.708;2023-02-03T06:35:29;39.67;;;19.90;;
60233;SDS011;49514;43.538;-5.708;2023-02-03T06:37:55;50.77;;;24.00;;
60233;SDS011;49514;43.538;-5.708;2023-02-03T06:40:22;40.17;;;19.38;;
60233;SDS011;49514;43.538;-5.708;2023-02-03T06:42:49;36.70;;;16.57;;
60233;SDS011;49514;43.538;-5.708;2023-02-03T06:45:16;34.97;;;15.85;;
60233;SDS011;49514;43.538;-5.708;2023-02-03T06:47:43;35.78;;;15.57;;
60233;SDS011;49514;43.538;-5.708;2023-02-03T06:50:11;35.75;;;15.07;;
60233;SDS011;49514;43.538;-5.708;2023-02-03T06:52:39;44.40;;;16.90;;
60233;SDS011;49514;43.538;-5.708;2023-02-03T06:55:06;39.80;;;16.33;;
60233;SDS011;49514;43.538;-5.708;2023-02-03T06:57:33;32.22;;;14.30;;
60233;SDS011;49514;43.538;-5.708;2023-02-03T07:00:00;29.55;;;12.77;;
60233;SDS011;49514;43.538;-5.708;2023-02-03T07:02:27;25.50;;;11.30;;
60233;SDS011;49514;43.538;-5.708;2023-02-03T07:04:54;24.63;;;10.70;;
60233;SDS011;49514;43.538;-5.708;2023-02-03T07:07:20;20.93;;;10.83;;
60233;SDS011;49514;43.538;-5.708;2023-02-03T07:09:47;26.13;;;10.63;;
60233;SDS011;49514;43.538;-5.708;2023-02-03T07:12:13;24.27;;;11.43;;
60233;SDS011;49514;43.538;-5.708;2023-02-03T07:14:40;19.88;;;10.20;;
60233;SDS011;49514;43.538;-5.708;2023-02-03T07:17:07;20.02;;;9.77;;
60233;SDS011;49514;43.538;-5.708;2023-02-03T07:19:33;20.05;;;9.93;;
60233;SDS011;49514;43.538;-5.708;2023-02-03T07:22:00;20.67;;;11.15;;
60233;SDS011;49514;43.538;-5.708;2023-02-03T07:24:28;19.30;;;10.43;;
60233;SDS011;49514;43.538;-5.708;2023-02-03T07:26:55;20.80;;;10.82;;
60233;SDS011;49514;43.538;-5.708;2023-02-03T07:29:22;24.83;;;11.77;;
60233;SDS011;49514;43.538;-5.708;2023-02-03T07:31:48;28.02;;;12.00;;
60233;SDS011;49514;43.538;-5.708;2023-02-03T07:34:15;27.88;;;12.25;;
60233;SDS011;49514;43.538;-5.708;2023-02-03T07:36:42;24.17;;;11.10;;
60233;SDS011;49514;43.538;-5.708;2023-02-03T07:39:08;23.45;;;11.05;;
60233;SDS011;49514;43.538;-5.708;2023-02-03T07:41:35;24.90;;;10.68;;
60233;SDS011;49514;43.538;-5.708;2023-02-03T07:44:02;27.20;;;10.90;;
60233;SDS011;49514;43.538;-5.708;2023-02-03T07:46:29;26.13;;;10.40;;
60233;SDS011;49514;43.538;-5.708;2023-02-03T07:48:56;25.15;;;11.45;;
60233;SDS011;49514;43.538;-5.708;2023-02-03T07:51:22;30.50;;;11.90;;
60233;SDS011;49514;43.538;-5.708;2023-02-03T07:53:49;33.83;;;13.02;;
60233;SDS011;49514;43.538;-5.708;2023-02-03T07:56:15;40.92;;;15.18;;
60233;SDS011;49514;43.538;-5.708;2023-02-03T07:58:42;54.10;;;19.63;;
60233;SDS011;49514;43.538;-5.708;2023-02-03T08:01:13;63.55;;;21.80;;
60233;SDS011;49514;43.538;-5.708;2023-02-03T08:03:41;52.75;;;20.10;;
60233;SDS011;49514;43.538;-5.708;2023-02-03T08:06:08;43.10;;;17.20;;
60233;SDS011;49514;43.538;-5.708;2023-02-03T08:08:35;43.83;;;17.08;;
60233;SDS011;49514;43.538;-5.708;2023-02-03T08:11:02;38.20;;;16.20;;
60233;SDS011;49514;43.538;-5.708;2023-02-03T08:13:28;40.35;;;15.30;;
60233;SDS011;49514;43.538;-5.708;2023-02-03T08:15:55;38.70;;;14.05;;
60233;SDS011;49514;43.538;-5.708;2023-02-03T08:18:22;39.83;;;14.63;;
60233;SDS011;49514;43.538;-5.708;2023-02-03T08:20:48;39.88;;;14.98;;
60233;SDS011;49514;43.538;-5.708;2023-02-03T08:23:15;41.57;;;17.23;;
60233;SDS011;49514;43.538;-5.708;2023-02-03T08:25:42;49.17;;;21.30;;
60233;SDS011;49514;43.538;-5.708;2023-02-03T08:28:09;50.75;;;21.73;;
60233;SDS011;49514;43.538;-5.708;2023-02-03T08:30:36;47.20;;;19.13;;
60233;SDS011;49514;43.538;-5.708;2023-02-03T08:33:03;70.40;;;31.88;;
60233;SDS011;49514;43.538;-5.708;2023-02-03T08:35:30;73.20;;;29.67;;
60233;SDS011;49514;43.538;-5.708;2023-02-03T08:37:57;69.03;;;28.95;;
60233;SDS011;49514;43.538;-5.708;2023-02-03T08:40:23;68.30;;;26.50;;
60233;SDS011;49514;43.538;-5.708;2023-02-03T08:42:50;72.72;;;26.05;;
60233;SDS011;49514;43.538;-5.708;2023-02-03T08:45:16;43.70;;;18.35;;
60233;SDS011;49514;43.538;-5.708;2023-02-03T08:47:43;36.67;;;14.75;;
60233;SDS011;49514;43.538;-5.708;2023-02-03T08:50:10;22.83;;;9.98;;
60233;SDS011;49514;43.538;-5.708;2023-02-03T08:52:38;43.83;;;16.05;;
60233;SDS011;49514;43.538;-5.708;2023-02-03T08:55:05;40.60;;;15.70;;
60233;SDS011;49514;43.538;-5.708;2023-02-03T08:57:35;42.85;;;15.73;;
60233;SDS011;49514;43.538;-5.708;2023-02-03T09:00:05;38.45;;;14.50;;
60233;SDS011;49514;43.538;-5.708;2023-02-03T09:02:33;37.80;;;14.25;;
60233;SDS011;49514;43.538;-5.708;2023-02-03T09:04:59;40.80;;;10.82;;
60233;SDS011;49514;43.538;-5.708;2023-02-03T09:07:26;21.13;;;8.43;;
60233;SDS011;49514;43.538;-5.708;2023-02-03T09:09:53;24.05;;;8.77;;
60233;SDS011;49514;43.538;-5.708;2023-02-03T09:12:20;24.55;;;7.90;;
60233;SDS011;49514;43.538;-5.708;2023-02-03T09:14:46;29.10;;;8.98;;
60233;SDS011;49514;43.538;-5.708;2023-02-03T09:17:13;27.98;;;9.52;;
60233;SDS011;49514;43.538;-5.708;2023-02-03T09:19:40;19.70;;;8.35;;
60233;SDS011;49514;43.538;-5.708;2023-02-03T09:22:06;22.17;;;8.35;;
60233;SDS011;49514;43.538;-5.708;2023-02-03T09:24:33;27.98;;;9.43;;
60233;SDS011;49514;43.538;-5.708;2023-02-03T09:27:01;32.22;;;11.65;;
60233;SDS011;49514;43.538;-5.708;2023-02-03T09:29:27;39.58;;;14.52;;
60233;SDS011;49514;43.538;-5.708;2023-02-03T09:31:54;48.22;;;17.10;;
60233;SDS011;49514;43.538;-5.708;2023-02-03T09:34:21;50.88;;;17.52;;
60233;SDS011;49514;43.538;-5.708;2023-02-03T09:36:48;54.60;;;18.98;;
60233;SDS011;49514;43.538;-5.708;2023-02-03T09:39:14;64.28;;;22.98;;
60233;SDS011;49514;43.538;-5.708;2023-02-03T09:41:50;53.33;;;21.33;;
60233;SDS011;49514;43.538;-5.708;2023-02-03T09:46:54;26.63;;;8.82;;
60233;SDS011;49514;43.538;-5.708;2023-02-03T09:49:41;24.50;;;8.48;;
60233;SDS011;49514;43.538;-5.708;2023-02-03T09:52:19;17.00;;;6.90;;
60233;SDS011;49514;43.538;-5.708;2023-02-03T09:54:51;26.00;;;8.27;;
60233;SDS011;49514;43.538;-5.708;2023-02-03T09:57:22;21.33;;;7.15;;
60233;SDS011;49514;43.538;-5.708;2023-02-03T09:59:51;17.98;;;7.10;;
60233;SDS011;49514;43.538;-5.708;2023-02-03T10:10:38;16.02;;;6.75;;
60233;SDS011;49514;43.538;-5.708;2023-02-03T10:13:14;13.50;;;5.63;;
60233;SDS011;49514;43.538;-5.708;2023-02-03T10:16:51;13.88;;;5.57;;
60233;SDS011;49514;43.538;-5.708;2023-02-03T10:18:59;15.10;;;6.03;;
60233;SDS011;49514;43.538;-5.708;2023-02-03T10:21:40;13.13;;;6.47;;
60233;SDS011;49514;43.538;-5.708;2023-02-03T10:24:12;12.00;;;6.00;;
60233;SDS011;49514;43.538;-5.708;2023-02-03T10:27:16;10.48;;;5.05;;
60233;SDS011;49514;43.538;-5.708;2023-02-03T10:29:47;16.60;;;6.05;;
60233;SDS011;49514;43.538;-5.708;2023-02-03T10:32:23;14.00;;;5.97;;
60233;SDS011;49514;43.538;-5.708;2023-02-03T10:34:51;16.63;;;6.15;;
60233;SDS011;49514;43.538;-5.708;2023-02-03T10:40:02;13.57;;;5.45;;
60233;SDS011;49514;43.538;-5.708;2023-02-03T10:42:30;11.85;;;5.07;;
60233;SDS011;49514;43.538;-5.708;2023-02-03T10:45:18;15.97;;;5.30;;
60233;SDS011;49514;43.538;-5.708;2023-02-03T10:47:55;14.05;;;4.88;;
60233;SDS011;49514;43.538;-5.708;2023-02-03T10:50:24;16.05;;;5.00;;
60233;SDS011;49514;43.538;-5.708;2023-02-03T10:55:51;12.45;;;5.32;;
60233;SDS011;49514;43.538;-5.708;2023-02-03T10:58:36;10.25;;;4.43;;
60233;SDS011;49514;43.538;-5.708;2023-02-03T11:01:05;13.07;;;4.63;;
60233;SDS011;49514;43.538;-5.708;2023-02-03T11:03:36;10.80;;;4.82;;
60233;SDS011;49514;43.538;-5.708;2023-02-03T11:06:08;14.45;;;5.30;;
60233;SDS011;49514;43.538;-5.708;2023-02-03T11:08:41;17.80;;;5.97;;
60233;SDS011;49514;43.538;-5.708;2023-02-03T11:11:19;13.20;;;5.47;;
60233;SDS011;49514;43.538;-5.708;2023-02-03T11:13:51;12.93;;;5.45;;
60233;SDS011;49514;43.538;-5.708;2023-02-03T11:16:38;11.55;;;4.93;;
60233;SDS011;49514;43.538;-5.708;2023-02-03T11:19:06;15.60;;;4.97;;
60233;SDS011;49514;43.538;-5.708;2023-02-03T11:21:49;13.48;;;4.82;;
60233;SDS011;49514;43.538;-5.708;2023-02-03T11:26:53;19.73;;;6.32;;
60233;SDS011;49514;43.538;-5.708;2023-02-03T11:29:21;18.15;;;6.20;;
60233;SDS011;49514;43.538;-5.708;2023-02-03T11:31:55;13.87;;;5.03;;
60233;SDS011;49514;43.538;-5.708;2023-02-03T11:34:33;12.75;;;5.10;;
60233;SDS011;49514;43.538;-5.708;2023-02-03T11:42:34;16.58;;;4.72;;
60233;SDS011;49514;43.538;-5.708;2023-02-03T11:47:38;12.38;;;5.00;;
60233;SDS011;49514;43.538;-5.708;2023-02-03T12:11:55;14.27;;;5.00;;
60233;SDS011;49514;43.538;-5.708;2023-02-03T12:14:45;12.20;;;4.55;;
60233;SDS011;49514;43.538;-5.708;2023-02-03T12:20:05;12.48;;;4.35;;
60233;SDS011;49514;43.538;-5.708;2023-02-03T12:28:13;13.75;;;3.50;;
60233;SDS011;49514;43.538;-5.708;2023-02-03T12:30:45;10.88;;;2.58;;
60233;SDS011;49514;43.538;-5.708;2023-02-03T13:19:14;11.93;;;2.72;;
60233;SDS011;49514;43.538;-5.708;2023-02-03T13:21:47;11.23;;;2.63;;
60233;SDS011;49514;43.538;-5.708;2023-02-03T13:24:14;9.57;;;3.72;;
60233;SDS011;49514;43.538;-5.708;2023-02-03T13:29:37;10.23;;;2.90;;
60233;SDS011;49514;43.538;-5.708;2023-02-03T13:32:34;10.50;;;2.75;;
60233;SDS011;49514;43.538;-5.708;2023-02-03T13:35:25;10.23;;;2.88;;
60233;SDS011;49514;43.538;-5.708;2023-02-03T13:43:39;11.60;;;3.20;;
60233;SDS011;49514;43.538;-5.708;2023-02-03T13:48:52;10.20;;;2.78;;
60233;SDS011;49514;43.538;-5.708;2023-02-03T13:51:23;10.63;;;3.10;;
60233;SDS011;49514;43.538;-5.708;2023-02-03T14:22:30;12.73;;;3.00;;
60233;SDS011;49514;43.538;-5.708;2023-02-03T14:24:57;11.67;;;3.07;;
60233;SDS011;49514;43.538;-5.708;2023-02-03T14:27:30;13.05;;;2.90;;
